createdAt,value
2022-12-03T00:03:37.278Z,101837.97
2022-12-03T00:08:40.737Z,101843.13
2022-12-03T00:13:43.909Z,101843.20
2022-12-03T00:18:47.074Z,101843.80
2022-12-03T00:23:50.280Z,101835.30
2022-12-03T00:28:55.014Z,101830.21
2022-12-03T00:33:58.787Z,101825.84
2022-12-03T00:39:02.046Z,101825.29
2022-12-03T00:44:05.571Z,101825.09
2022-12-03T00:49:08.972Z,101825.48
2022-12-03T00:54:12.176Z,101820.61
2022-12-03T00:59:15.425Z,101817.17
2022-12-03T01:04:18.745Z,101815.67
2022-12-03T01:09:22.133Z,101815.86
2022-12-03T01:14:25.269Z,101812.21
2022-12-03T01:19:28.569Z,101808.64
2022-12-03T01:24:31.742Z,101805.49
2022-12-03T01:29:35.532Z,101803.15
2022-12-03T01:34:38.746Z,101803.47
2022-12-03T01:39:42.601Z,101802.85
2022-12-03T01:44:46.888Z,101802.61
2022-12-03T01:49:54.529Z,101801.81
2022-12-03T01:55:02.080Z,101799.95
2022-12-03T02:00:07.125Z,101798.88
2022-12-03T02:05:19.570Z,101796.27
2022-12-03T02:10:32.383Z,101788.59
2022-12-03T02:15:36.974Z,101789.75
2022-12-03T02:21:09.849Z,101786.06
2022-12-03T02:26:13.204Z,101782.68
2022-12-03T02:31:16.541Z,101776.21
2022-12-03T02:36:20.834Z,101772.35
2022-12-03T02:41:43.135Z,101767.58
2022-12-03T02:46:46.621Z,101762.94
2022-12-03T02:51:50.167Z,101762.62
2022-12-03T02:56:53.423Z,101760.67
2022-12-03T03:01:56.712Z,101761.42
2022-12-03T03:07:00.284Z,101759.89
2022-12-03T03:12:03.577Z,101761.40
2022-12-03T03:17:07.289Z,101758.09
2022-12-03T03:22:12.005Z,101759.39
2022-12-03T03:27:15.227Z,101754.89
2022-12-03T03:32:18.611Z,101754.65
2022-12-03T03:37:22.324Z,101751.15
2022-12-03T03:42:25.763Z,101742.65
2022-12-03T03:47:29.100Z,101739.88
2022-12-03T03:52:32.425Z,101742.27
2022-12-03T03:57:35.989Z,101742.42
2022-12-03T04:02:39.169Z,101739.33
2022-12-03T04:07:42.502Z,101739.10
2022-12-03T04:12:57.834Z,101739.85
2022-12-03T04:18:19.900Z,101737.14
2022-12-03T04:23:29.309Z,101729.58
2022-12-03T04:28:49.295Z,101734.13
2022-12-03T04:34:12.473Z,101728.83
2022-12-03T04:39:15.809Z,101729.98
2022-12-03T04:44:36.414Z,101727.82
2022-12-03T04:49:42.354Z,101726.27
2022-12-03T04:54:45.608Z,101727.45
2022-12-03T04:59:48.849Z,101726.48
2022-12-03T05:04:52.444Z,101721.55
2022-12-03T05:09:55.919Z,101718.21
2022-12-03T05:14:59.085Z,101718.92
2022-12-03T05:20:21.122Z,101723.88
2022-12-03T05:25:24.315Z,101723.06
2022-12-03T05:30:27.720Z,101717.64
2022-12-03T05:35:30.962Z,101715.48
2022-12-03T05:40:34.276Z,101715.08
2022-12-03T05:45:40.464Z,101715.48
2022-12-03T05:50:46.476Z,101711.26
2022-12-03T05:55:49.577Z,101708.70
2022-12-03T06:00:52.981Z,101708.07
2022-12-03T06:05:56.167Z,101708.08
2022-12-03T06:10:59.403Z,101706.77
2022-12-03T06:16:02.555Z,101707.77
2022-12-03T06:21:06.981Z,101709.09
2022-12-03T06:26:12.161Z,101709.75
2022-12-03T06:31:15.525Z,101712.52
2022-12-03T06:36:22.826Z,101714.86
2022-12-03T06:41:26.826Z,101711.38
2022-12-03T06:46:30.487Z,101707.01
2022-12-03T06:51:33.873Z,101702.20
2022-12-03T06:56:43.370Z,101703.98
2022-12-03T07:01:51.338Z,101702.12
2022-12-03T07:06:54.572Z,101700.68
2022-12-03T07:11:57.805Z,101701.39
2022-12-03T07:17:00.952Z,101698.02
2022-12-03T07:22:04.478Z,101700.48
2022-12-03T07:27:08.207Z,101698.48
2022-12-03T07:32:11.402Z,101696.23
2022-12-03T07:37:18.633Z,101694.02
2022-12-03T07:42:24.791Z,101691.88
2022-12-03T07:47:28.142Z,101691.23
2022-12-03T07:52:31.670Z,101689.61
2022-12-03T07:57:34.989Z,101689.17
2022-12-03T08:02:38.342Z,101689.81
2022-12-03T08:07:42.088Z,101691.70
2022-12-03T08:12:45.455Z,101693.70
2022-12-03T08:17:55.299Z,101697.21
2022-12-03T08:22:59.943Z,101698.65
2022-12-03T08:28:13.037Z,101702.73
2022-12-03T08:33:33.911Z,101696.05
2022-12-03T08:38:37.409Z,101696.93
2022-12-03T08:43:43.164Z,101692.83
2022-12-03T08:48:49.277Z,101690.08
2022-12-03T08:54:01.821Z,101690.44
2022-12-03T08:59:35.328Z,101692.29
2022-12-03T09:04:41.288Z,101684.98
2022-12-03T09:09:44.530Z,101683.06
2022-12-03T09:14:48.067Z,101679.00
2022-12-03T09:19:51.241Z,101683.74
2022-12-03T09:24:54.709Z,101677.36
2022-12-03T09:29:58.491Z,101680.86
2022-12-03T09:35:01.746Z,101685.08
2022-12-03T09:40:07.258Z,101681.00
2022-12-03T09:45:13.627Z,101674.30
2022-12-03T09:50:25.611Z,101672.54
2022-12-03T09:55:29.398Z,101672.05
2022-12-03T10:00:32.602Z,101671.07
2022-12-03T10:05:35.918Z,101662.86
2022-12-03T10:10:42.043Z,101663.41
2022-12-03T10:15:45.245Z,101659.21
2022-12-03T10:20:49.219Z,101652.70
2022-12-03T10:26:03.851Z,101650.76
2022-12-03T10:31:10.253Z,101647.86
2022-12-03T10:36:25.771Z,101649.26
2022-12-03T10:41:29.569Z,101648.08
2022-12-03T10:46:32.821Z,101649.23
2022-12-03T10:51:38.376Z,101645.56
2022-12-03T10:56:41.700Z,101642.16
2022-12-03T11:01:46.037Z,101642.21
2022-12-03T11:06:50.757Z,101638.85
2022-12-03T11:11:54.730Z,101639.27
2022-12-03T11:17:01.111Z,101632.98
2022-12-03T11:22:06.933Z,101630.05
2022-12-03T11:27:10.187Z,101625.16
2022-12-03T11:32:38.303Z,101620.11
2022-12-03T11:37:42.034Z,101613.45
2022-12-03T11:42:47.439Z,101608.73
2022-12-03T11:48:06.199Z,101599.47
2022-12-03T11:53:31.739Z,101601.97
2022-12-03T11:58:38.757Z,101598.88
2022-12-03T12:03:45.725Z,101599.85
2022-12-03T12:08:51.914Z,101593.69
2022-12-03T12:14:00.835Z,101593.06
2022-12-03T12:19:32.392Z,101592.23
2022-12-03T12:24:40.673Z,101588.21
2022-12-03T12:29:47.537Z,101584.31
2022-12-03T12:34:54.920Z,101585.71
2022-12-03T12:40:01.652Z,101582.39
2022-12-03T12:45:07.585Z,101584.26
2022-12-03T12:50:12.291Z,101586.80
2022-12-03T12:55:17.076Z,101585.15
2022-12-03T13:00:23.840Z,101586.00
2022-12-03T13:05:41.160Z,101588.92
2022-12-03T13:10:44.776Z,101588.66
2022-12-03T13:15:50.772Z,101588.36
2022-12-03T13:20:55.691Z,101584.71
2022-12-03T13:26:17.360Z,101582.40
2022-12-03T13:31:28.333Z,101582.58
2022-12-03T13:36:39.604Z,101576.39
2022-12-03T13:42:02.107Z,101574.15
2022-12-03T13:47:22.871Z,101575.17
2022-12-03T13:52:27.288Z,101571.84
2022-12-03T13:57:30.629Z,101575.30
2022-12-03T14:02:33.926Z,101577.56
2022-12-03T14:07:38.973Z,101575.26
2022-12-03T14:12:42.900Z,101574.22
2022-12-03T14:17:46.132Z,101580.66
2022-12-03T14:22:51.258Z,101582.77
2022-12-03T14:27:56.272Z,101580.48
2022-12-03T14:32:59.483Z,101582.56
2022-12-03T14:38:02.931Z,101582.87
2022-12-03T14:43:06.117Z,101586.34
2022-12-03T14:48:09.347Z,101583.08
2022-12-03T14:53:12.498Z,101579.13
2022-12-03T14:58:16.730Z,101575.64
2022-12-03T15:03:19.908Z,101566.63
2022-12-03T15:08:23.149Z,101560.25
2022-12-03T15:13:29.595Z,101553.38
2022-12-03T15:18:34.797Z,101554.55
2022-12-03T15:23:38.138Z,101562.95
2022-12-03T15:28:46.704Z,101562.70
2022-12-03T15:33:51.464Z,101566.42
2022-12-03T15:38:54.682Z,101569.76
2022-12-03T15:44:02.200Z,101565.94
2022-12-03T15:49:05.390Z,101569.57
2022-12-03T15:54:08.621Z,101568.69
2022-12-03T15:59:13.267Z,101567.57
2022-12-03T16:04:16.455Z,101574.52
2022-12-03T16:09:25.306Z,101578.88
2022-12-03T16:14:30.577Z,101575.66
2022-12-03T16:19:33.829Z,101571.33
2022-12-03T16:24:37.077Z,101576.91
2022-12-03T16:29:40.848Z,101574.79
2022-12-03T16:34:44.045Z,101573.11
2022-12-03T16:39:47.386Z,101578.93
2022-12-03T16:44:59.635Z,101578.12
2022-12-03T16:50:05.493Z,101583.78
2022-12-03T16:55:09.219Z,101587.65
2022-12-03T17:00:13.113Z,101590.66
2022-12-03T17:05:16.588Z,101593.05
2022-12-03T17:10:19.909Z,101592.34
2022-12-03T17:15:23.306Z,101587.86
2022-12-03T17:20:26.524Z,101585.27
2022-12-03T17:25:30.736Z,101587.35
2022-12-03T17:30:33.996Z,101591.81
2022-12-03T17:35:37.240Z,101593.73
2022-12-03T17:40:40.446Z,101591.89
2022-12-03T17:45:44.602Z,101591.39
2022-12-03T17:50:48.939Z,101590.80
2022-12-03T17:55:54.537Z,101586.31
2022-12-03T18:01:02.335Z,101584.69
2022-12-03T18:06:06.706Z,101585.31
2022-12-03T18:11:09.915Z,101589.59
2022-12-03T18:16:13.191Z,101586.72
2022-12-03T18:21:16.398Z,101585.70
2022-12-03T18:26:19.547Z,101582.58
2022-12-03T18:31:22.881Z,101585.13
2022-12-03T18:36:30.200Z,101587.52
2022-12-03T18:41:34.011Z,101588.33
2022-12-03T18:46:52.916Z,101583.02
2022-12-03T18:51:59.540Z,101577.89
2022-12-03T18:57:05.545Z,101581.44
2022-12-03T19:02:53.724Z,101577.98
2022-12-03T19:07:41.189Z,101577.95
2022-12-03T19:12:44.369Z,101566.90
2022-12-03T19:17:51.684Z,101570.67
2022-12-03T19:22:54.992Z,101582.37
2022-12-03T19:27:58.248Z,101579.64
2022-12-03T19:33:01.451Z,101583.16
2022-12-03T19:38:04.744Z,101588.80
2022-12-03T19:43:08.197Z,101589.92
2022-12-03T19:48:11.410Z,101589.28
2022-12-03T19:53:14.540Z,101587.54
2022-12-03T19:58:17.933Z,101594.50
2022-12-03T20:03:21.138Z,101599.58
2022-12-03T20:08:24.366Z,101597.83
2022-12-03T20:13:30.846Z,101602.58
2022-12-03T20:18:37.610Z,101600.95
2022-12-03T20:23:42.255Z,101594.92
2022-12-03T20:28:48.334Z,101591.53
2022-12-03T20:33:54.750Z,101596.15
2022-12-03T20:39:00.609Z,101598.77
2022-12-03T20:44:06.606Z,101598.52
2022-12-03T20:49:09.883Z,101602.38
2022-12-03T20:54:13.393Z,101592.49
2022-12-03T20:59:18.255Z,101594.33
2022-12-03T21:04:21.970Z,101594.48
2022-12-03T21:09:25.601Z,101592.67
2022-12-03T21:14:29.926Z,101589.91
2022-12-03T21:19:33.276Z,101590.45
2022-12-03T21:24:36.484Z,101588.58
2022-12-03T21:29:39.811Z,101578.23
2022-12-03T21:34:43.025Z,101576.45
2022-12-03T21:39:46.304Z,101572.02
2022-12-03T21:44:49.597Z,101568.67
2022-12-03T21:49:52.932Z,101573.20
2022-12-03T21:54:58.392Z,101571.89
2022-12-03T22:00:01.656Z,101570.23
2022-12-03T22:05:05.097Z,101570.58
2022-12-03T22:10:11.163Z,101582.38
2022-12-03T22:15:18.672Z,101589.60
2022-12-03T22:20:22.779Z,101585.90
2022-12-03T22:25:26.042Z,101583.43
2022-12-03T22:30:29.431Z,101579.53
2022-12-03T22:35:32.622Z,101583.33
2022-12-03T22:40:39.678Z,101588.09
2022-12-03T22:45:42.896Z,101583.05
2022-12-03T22:50:47.867Z,101579.78
2022-12-03T22:55:59.172Z,101575.80
2022-12-03T23:01:03.094Z,101573.31
2022-12-03T23:06:11.236Z,101575.52
2022-12-03T23:11:14.843Z,101573.83
2022-12-03T23:16:21.274Z,101569.61
2022-12-03T23:21:29.920Z,101574.48
2022-12-03T23:26:37.648Z,101572.26
2022-12-03T23:31:40.982Z,101571.57
2022-12-03T23:36:44.253Z,101567.05
2022-12-03T23:41:51.260Z,101569.95
2022-12-03T23:46:54.483Z,101569.27
2022-12-03T23:51:57.765Z,101571.98
2022-12-03T23:57:00.974Z,101574.44
